Allendale, SC (29810)

5:10 PM EST on February 08, 2016 (GMT -0500)
JCO Farms | | Change Station
CLOSE
Current Station
Personal Weather Station
Location: Fairfax, SC
Elevation: 167 ft
Nearby Weather Stations
Active Advisory: Flood Warning

Elev 167 ft 32.99 °N, 81.29 °W | Updated 21 seconds ago

Rain
Rain
51.1 °F
Feels Like 51.1 °F
N
0.9
Wind Variable Wind from SW
Gusts 2.5 mph

Today
High -- | Low -- °F
--% Chance of Precip.
Yesterday
High -- | Low -- °F
Precip. -- in
Pressure 29.76 in
Visibility 7.0 miles
Clouds Scattered Clouds 3400 ft
Mostly Cloudy 4200 ft
Overcast 5000 ft
Dew Point 48 °F
Humidity 89%
Rainfall 0.04 in
Snow Depth Not available.
7:15 AM 6:03 PM
New Moon, 0% visible
METAR KJYL 082155Z AUTO 30011G19KT 7SM -RA SCT034 BKN042 OVC050 11/07 A2976 RMK AO2 T01110074
Pressure 29.76 in
Visibility 7.0 miles
Clouds Scattered Clouds 3400 ft
Mostly Cloudy 4200 ft
Overcast 5000 ft
Dew Point 48 °F
Humidity 89%
Rainfall 0.04 in
Snow Depth Not available.
7:15 AM 6:03 PM
New Moon, 0% visible
METAR KJYL 082155Z AUTO 30011G19KT 7SM -RA SCT034 BKN042 OVC050 11/07 A2976 RMK AO2 T01110074

10-Day Weather Forecast

Almanac

Astronomy

Feb. 08, 2016 Rise Set
Actual Time
Civil Twilight
Nautical Twilight
Astronomical Twilight
Moon
Length of Visible Light
Length of Day
Tomorrow will be .
, % of the Moon is Illuminated

Today's Extremes

State Highs State Lows

Community

WunderPhotos

Upload Photos

1,891,511 photos uploaded!

WunderBlog® & News

Nearby

Air Quality

  Air Quality AQ Index Pollutant
Not available.

Snow Depth

Station Depth Elevation

Earthquake Activity

City Distance Mag. Time & Date
Minimum magnitude displayed is 2.5.

Coastal Water Temperatures

Place Temperature

Stations

Nearby Weather Stations

Station Location Temp. Windchill Dew Point Humidity Wind Precip. Elev Updated Type
                   

Watches & Warnings

Flood Warning
Issued: 11:19 AM EST Feb. 8, 2016 – National Weather Service

The Flood Warning continues for
the Savannah River at Burtons Ferry.
* At 11 am Monday the stage was 16.0 feet.
* Flood stage is 15.0 feet.
* Minor flooding is occurring.
* Forecast, the river will rise to near 16.1 feet by this afternoon
then begin a slow fall.
* At 15.0 feet, flooding of some adjacent agricultural lands occurs.
Most boat ramps along the river are unusable.


Lat... Lon 3303 8156 3307 8150 3292 8143 3276 8137
          3273 8145 3289 8151